Time;durP1;ratioP1;P1;durP2;ratioP2;P2;SDS_P1;SDS_P2;PMS_P1;PMS_P2;Temp;Humidity;BMP_temperature;BMP_pressure;BME280_temperature;BME280_humidity;BME280_pressure;Samples;Min_cycle;Max_cycle;Signal;HPM_P1;HPM_P2
2022/04/26 03:37:31;;;;;;;29.80;26.60;;;;;;;9.29;100.00;97655.63;4957882;28;20447;-71
2022/04/26 03:39:58;;;;;;;31.63;27.40;;;;;;;9.29;100.00;97660.94;4958560;28;20201;-71
2022/04/26 03:42:24;;;;;;;31.27;27.13;;;;;;;9.28;100.00;97677.91;4957809;28;20699;-71
2022/04/26 03:44:50;;;;;;;40.93;30.00;;;;;;;9.28;100.00;97667.28;4957888;29;20659;-70
2022/04/26 03:47:17;;;;;;;33.73;28.73;;;;;;;9.29;100.00;97666.25;4957631;28;20715;-71
2022/04/26 03:49:43;;;;;;;29.00;25.90;;;;;;;9.30;100.00;97663.38;4957907;29;20217;-71
2022/04/26 03:52:09;;;;;;;34.73;29.13;;;;;;;9.33;100.00;97664.78;4966540;28;20683;-71
2022/04/26 03:54:36;;;;;;;31.57;26.47;;;;;;;9.31;100.00;97661.53;4977423;28;20339;-71
2022/04/26 03:57:02;;;;;;;32.50;28.60;;;;;;;9.30;100.00;97670.53;4977098;28;20227;-71
2022/04/26 03:59:29;;;;;;;31.47;28.03;;;;;;;9.31;100.00;97666.81;4976377;28;20204;-71
2022/04/26 04:01:56;;;;;;;31.30;27.33;;;;;;;9.33;100.00;97667.44;4977009;28;20211;-71
2022/04/26 04:04:22;;;;;;;32.40;25.90;;;;;;;9.33;100.00;97667.44;4976735;28;20709;-71
2022/04/26 04:06:48;;;;;;;30.07;26.17;;;;;;;9.33;100.00;97683.34;4975313;28;20204;-71
2022/04/26 04:09:15;;;;;;;30.23;24.93;;;;;;;9.30;100.00;97686.44;4975643;28;20218;-71
2022/04/26 04:11:41;;;;;;;27.93;24.93;;;;;;;9.35;100.00;97692.72;4976634;28;20679;-71
2022/04/26 04:14:07;;;;;;;33.07;25.77;;;;;;;9.29;100.00;97693.59;4976604;28;20219;-71
2022/04/26 04:16:34;;;;;;;28.00;24.03;;;;;;;9.29;100.00;97690.13;4976746;28;20215;-71
2022/04/26 04:21:45;;;;;;;24.30;21.70;;;;;;;9.30;100.00;97687.25;4975778;28;20199;-71
2022/04/26 04:24:18;;;;;;;22.93;20.53;;;;;;;9.32;100.00;97695.78;4976673;28;20666;-70
2022/04/26 04:26:45;;;;;;;23.90;21.47;;;;;;;9.26;100.00;97702.00;4975721;28;20200;-71
2022/04/26 04:29:12;;;;;;;25.87;22.77;;;;;;;9.24;100.00;97698.72;4976120;28;20208;-70
2022/04/26 04:31:39;;;;;;;26.27;23.57;;;;;;;9.25;100.00;97707.50;4976549;28;20211;-70
2022/04/26 04:34:06;;;;;;;26.73;23.93;;;;;;;9.28;100.00;97709.72;4976406;28;20208;-70
2022/04/26 04:36:32;;;;;;;27.97;24.93;;;;;;;9.30;100.00;97713.78;4974431;28;20215;-70
2022/04/26 04:38:59;;;;;;;28.00;24.87;;;;;;;9.30;100.00;97705.00;4976602;28;20302;-70
2022/04/26 04:41:26;;;;;;;27.67;24.80;;;;;;;9.31;100.00;97709.28;4976274;28;20215;-71
2022/04/26 04:43:52;;;;;;;28.57;25.50;;;;;;;9.29;100.00;97714.81;4976074;28;20208;-70
2022/04/26 04:46:19;;;;;;;29.00;25.13;;;;;;;9.30;100.00;97712.97;4976533;28;20231;-70
2022/04/26 04:48:45;;;;;;;27.93;24.93;;;;;;;9.32;100.00;97718.88;4975865;28;20235;-70
2022/04/26 04:51:11;;;;;;;31.23;27.07;;;;;;;9.27;100.00;97705.44;4976201;28;20232;-70
2022/04/26 04:53:38;;;;;;;28.40;25.37;;;;;;;9.29;100.00;97703.38;4974895;28;20681;-69
2022/04/26 04:56:05;;;;;;;31.53;26.43;;;;;;;9.25;100.00;97703.03;4976492;28;20214;-70
2022/04/26 04:58:32;;;;;;;28.13;25.30;;;;;;;9.29;100.00;97708.69;4975797;28;20235;-70
2022/04/26 05:00:58;;;;;;;29.83;25.37;;;;;;;9.29;100.00;97706.03;4975380;28;20682;-70
2022/04/26 05:03:25;;;;;;;32.87;28.23;;;;;;;9.28;100.00;97704.44;4975025;28;20208;-70
2022/04/26 05:05:51;;;;;;;31.67;27.90;;;;;;;9.28;100.00;97707.88;4975424;28;20238;-70
2022/04/26 05:08:17;;;;;;;32.27;28.57;;;;;;;9.25;100.00;97708.34;4975432;28;20314;-70
2022/04/26 05:10:44;;;;;;;31.90;27.80;;;;;;;9.30;100.00;97703.19;4973800;28;20230;-70
2022/04/26 05:13:10;;;;;;;28.17;25.10;;;;;;;9.34;100.00;97707.00;4975836;28;20215;-70
2022/04/26 05:15:38;;;;;;;27.97;24.47;;;;;;;9.34;100.00;97700.88;4975322;28;20235;-70
2022/04/26 05:18:06;;;;;;;27.90;24.87;;;;;;;9.40;100.00;97707.97;4974425;28;20311;-70
2022/04/26 05:20:32;;;;;;;26.60;23.90;;;;;;;9.43;100.00;97713.66;4975104;28;20203;-70
2022/04/26 05:25:43;;;;;;;27.80;24.80;;;;;;;9.37;100.00;97703.91;4975031;28;20603;-70
2022/04/26 05:28:10;;;;;;;26.43;23.73;;;;;;;9.41;100.00;97701.66;4974097;28;20286;-70
2022/04/26 05:30:36;;;;;;;26.30;23.50;;;;;;;9.45;100.00;97705.44;4972230;28;20224;-70
2022/04/26 05:33:02;;;;;;;27.00;24.10;;;;;;;9.48;100.00;97711.16;4975338;28;20560;-70
2022/04/26 05:35:29;;;;;;;26.70;23.93;;;;;;;9.48;100.00;97713.81;4975248;28;20208;-70
2022/04/26 05:37:55;;;;;;;29.23;26.07;;;;;;;9.47;100.00;97719.31;4974360;28;20224;-70
2022/04/26 05:40:22;;;;;;;29.43;26.30;;;;;;;9.45;100.00;97718.72;4975197;28;20210;-70
2022/04/26 05:42:48;;;;;;;28.70;25.73;;;;;;;9.47;100.00;97724.63;4973252;28;20215;-70
2022/04/26 05:45:14;;;;;;;29.60;26.50;;;;;;;9.52;100.00;97724.78;4974578;28;20595;-70
2022/04/26 05:47:42;;;;;;;33.87;27.93;;;;;;;9.53;100.00;97727.22;4974690;28;20239;-70
2022/04/26 05:50:14;;;;;;;27.97;25.00;;;;;;;9.54;100.00;97722.72;4974902;28;20236;-70
2022/04/26 05:52:40;;;;;;;28.57;25.63;;;;;;;9.55;100.00;97732.31;4974685;28;20213;-70
2022/04/26 05:55:08;;;;;;;28.00;25.00;;;;;;;9.55;100.00;97735.75;4974598;28;20212;-70
2022/04/26 05:57:39;;;;;;;28.50;25.50;;;;;;;9.59;100.00;97726.34;4974589;28;20224;-70
2022/04/26 06:00:07;;;;;;;27.53;24.50;;;;;;;9.54;100.00;97728.00;4973850;28;20196;-70
2022/04/26 06:02:34;;;;;;;29.00;25.97;;;;;;;9.56;100.00;97731.28;4972825;28;20326;-70
2022/04/26 06:05:01;;;;;;;28.20;25.10;;;;;;;9.54;100.00;97731.50;4974277;28;20690;-70
2022/04/26 06:07:28;;;;;;;29.40;26.27;;;;;;;9.57;100.00;97739.03;4972332;28;20238;-70
2022/04/26 06:09:56;;;;;;;27.40;24.50;;;;;;;9.59;100.00;97736.94;4972326;28;20212;-70
2022/04/26 06:12:26;;;;;;;29.40;26.03;;;;;;;9.56;100.00;97739.25;4974348;28;20208;-71
2022/04/26 06:14:52;;;;;;;28.30;24.87;;;;;;;9.55;100.00;97743.72;4975123;28;20200;-70
2022/04/26 06:17:19;;;;;;;28.47;25.40;;;;;;;9.60;100.00;97748.38;4974338;28;20223;-70
2022/04/26 06:19:45;;;;;;;27.20;23.80;;;;;;;9.65;100.00;97751.19;4974334;28;20551;-70
2022/04/26 06:22:11;;;;;;;27.90;25.00;;;;;;;9.65;100.00;97748.53;4974297;28;20212;-70
2022/04/26 06:24:38;;;;;;;26.13;23.43;;;;;;;9.60;100.00;97753.69;4972851;28;20211;-70
2022/04/26 06:27:04;;;;;;;26.10;23.47;;;;;;;9.65;100.00;97753.84;4974321;28;20239;-70
2022/04/26 06:29:31;;;;;;;25.63;23.03;;;;;;;9.69;100.00;97755.03;4974158;28;20575;-70
2022/04/26 06:31:58;;;;;;;28.40;24.27;;;;;;;9.69;100.00;97750.50;4974378;28;20232;-70
2022/04/26 06:34:25;;;;;;;26.33;23.53;;;;;;;9.75;100.00;97756.78;4978243;28;20236;-70
2022/04/26 06:36:51;;;;;;;25.73;23.13;;;;;;;9.76;100.00;97747.78;4977964;28;20221;-70
2022/04/26 06:39:17;;;;;;;26.90;24.13;;;;;;;9.74;100.00;97760.50;4978369;28;20235;-70
2022/04/26 06:41:44;;;;;;;26.63;23.93;;;;;;;9.76;100.00;97750.44;4975716;28;20204;-70
2022/04/26 06:44:11;;;;;;;27.07;24.17;;;;;;;9.81;100.00;97747.94;4978213;28;20211;-70
2022/04/26 06:46:37;;;;;;;26.53;23.67;;;;;;;9.76;100.00;97740.66;4978068;28;20208;-70
2022/04/26 06:49:05;;;;;;;28.37;25.47;;;;;;;9.76;100.00;97758.41;4978075;28;20219;-70
2022/04/26 06:51:34;;;;;;;26.10;23.40;;;;;;;9.72;100.00;97759.88;4978101;28;20232;-70
2022/04/26 06:54:00;;;;;;;24.73;22.23;;;;;;;9.68;100.00;97758.72;4977907;28;20211;-71
2022/04/26 06:56:26;;;;;;;21.40;18.80;;;;;;;9.66;100.00;97755.47;4976077;28;20682;-70
2022/04/26 06:58:53;;;;;;;19.97;17.97;;;;;;;9.66;100.00;97752.81;4978003;28;20240;-71
2022/04/26 07:01:19;;;;;;;19.17;17.27;;;;;;;9.64;100.00;97760.97;4978057;28;20200;-70
2022/04/26 07:03:45;;;;;;;18.27;16.47;;;;;;;9.62;100.00;97762.22;4978064;28;20214;-70
2022/04/26 07:06:12;;;;;;;17.83;15.93;;;;;;;9.57;100.00;97764.75;4977636;28;20216;-70
2022/04/26 07:08:38;;;;;;;18.57;16.77;;;;;;;9.57;100.00;97770.88;4976180;28;20241;-70
2022/04/26 07:11:04;;;;;;;19.77;17.77;;;;;;;9.65;100.00;97759.16;4975772;28;20219;-70
2022/04/26 07:13:31;;;;;;;19.27;17.43;;;;;;;9.69;100.00;97766.44;4978310;28;20211;-70
2022/04/26 07:15:57;;;;;;;19.67;17.77;;;;;;;9.79;100.00;97753.50;4977879;28;20219;-70
2022/04/26 07:18:23;;;;;;;17.40;15.70;;;;;;;9.77;100.00;97760.84;4977640;28;20238;-70
2022/04/26 07:20:50;;;;;;;18.20;16.37;;;;;;;9.88;100.00;97749.50;4977533;28;20207;-70
2022/04/26 07:23:16;;;;;;;18.50;16.60;;;;;;;9.94;100.00;97753.91;4976312;28;20208;-70
2022/04/26 07:25:42;;;;;;;18.13;16.43;;;;;;;9.99;100.00;97748.75;4972102;28;20208;-70
2022/04/26 07:28:09;;;;;;;15.00;13.67;;;;;;;9.97;100.00;97748.19;4977183;28;20235;-70
2022/04/26 07:30:35;;;;;;;16.03;14.57;;;;;;;10.06;100.00;97746.88;4977475;28;20223;-70
2022/04/26 07:35:54;;;;;;;15.57;14.07;;;;;;;10.34;100.00;97733.00;4977475;28;20171;-70
2022/04/26 07:38:20;;;;;;;13.20;12.00;;;;;;;10.32;100.00;97743.84;4977238;28;20236;-70
2022/04/26 07:40:47;;;;;;;12.17;11.07;;;;;;;10.49;100.00;97744.03;4977129;28;20200;-70
2022/04/26 07:43:14;;;;;;;13.93;12.63;;;;;;;10.40;100.00;97745.38;4977111;28;20211;-70
2022/04/26 07:45:42;;;;;;;14.23;12.87;;;;;;;10.52;100.00;97756.88;4976006;28;20208;-70
2022/04/26 07:48:10;;;;;;;12.63;11.33;;;;;;;10.37;100.00;97748.50;4975519;28;20607;-70
2022/04/26 07:50:37;;;;;;;12.53;11.43;;;;;;;10.18;100.00;97741.63;4976984;28;20242;-71
2022/04/26 07:53:04;;;;;;;10.70;9.80;;;;;;;10.27;100.00;97746.38;4977239;28;20208;-71
2022/04/26 07:55:31;;;;;;;9.77;8.87;;;;;;;10.23;100.00;97749.72;4977249;28;20208;-70
2022/04/26 07:57:59;;;;;;;9.50;8.70;;;;;;;10.11;100.00;97754.97;4976744;28;20595;-70
2022/04/26 08:00:26;;;;;;;12.10;10.73;;;;;;;10.23;100.00;97760.34;4975229;28;20254;-70
2022/04/26 08:02:52;;;;;;;11.10;10.20;;;;;;;10.24;100.00;97764.63;4976564;28;20208;-71
2022/04/26 08:05:18;;;;;;;12.50;10.03;;;;;;;10.24;100.00;97761.97;4976537;28;20215;-70
2022/04/26 08:07:45;;;;;;;9.17;8.37;;;;;;;10.24;99.98;97780.56;4976760;28;20237;-70
2022/04/26 08:10:13;;;;;;;10.00;9.13;;;;;;;10.23;100.00;97795.69;4977176;28;20302;-70
2022/04/26 08:12:41;;;;;;;11.17;10.07;;;;;;;10.29;100.00;97799.31;4976571;28;20208;-71
2022/04/26 08:15:10;;;;;;;9.70;8.73;;;;;;;10.25;100.00;97804.25;4975946;28;20200;-71
2022/04/26 08:17:36;;;;;;;11.43;10.30;;;;;;;10.22;100.00;97803.88;4976367;28;20591;-70
2022/04/26 08:20:08;;;;;;;10.30;9.30;;;;;;;10.28;100.00;97809.09;4976734;28;20215;-70
2022/04/26 08:22:35;;;;;;;11.67;10.50;;;;;;;10.38;100.00;97813.91;4974824;28;20195;-71
2022/04/26 08:27:45;;;;;;;11.57;10.50;;;;;;;10.40;100.00;97812.66;4976340;28;20246;-70
2022/04/26 08:30:11;;;;;;;10.27;9.47;;;;;;;10.58;100.00;97815.28;4976523;28;20204;-70
2022/04/26 08:32:43;;;;;;;10.67;9.73;;;;;;;10.57;100.00;97818.16;4975982;28;20240;-71
2022/04/26 08:35:11;;;;;;;11.57;10.47;;;;;;;10.55;100.00;97828.22;4976462;28;20212;-71
2022/04/26 08:37:39;;;;;;;11.67;10.57;;;;;;;10.58;100.00;97833.06;4974515;28;20223;-71
2022/04/26 08:40:08;;;;;;;10.50;9.60;;;;;;;10.72;100.00;97830.00;4976418;28;20216;-71
2022/04/26 08:42:39;;;;;;;10.40;9.50;;;;;;;10.73;100.00;97839.59;4974940;28;20294;-71
2022/04/26 08:45:08;;;;;;;10.53;9.63;;;;;;;11.02;100.00;97836.16;4976190;28;20212;-71
2022/04/26 08:53:08;;;;;;;9.10;8.20;;;;;;;11.10;88.48;97843.78;4956812;29;20184;-71
2022/04/26 08:55:42;;;;;;;12.03;9.17;;;;;;;11.05;89.24;97851.63;4956336;28;20241;-71
2022/04/26 08:58:11;;;;;;;11.93;9.40;;;;;;;11.19;84.62;97857.59;4956234;28;20642;-71
2022/04/26 09:00:38;;;;;;;10.43;9.33;;;;;;;11.28;93.71;97841.06;4957194;29;20299;-71
2022/04/26 09:03:07;;;;;;;9.37;8.57;;;;;;;11.12;86.51;97851.53;4956561;29;20205;-71
2022/04/26 09:05:34;;;;;;;9.00;7.20;;;;;;;10.94;83.48;97854.25;4962977;28;20223;-70
2022/04/26 09:08:19;;;;;;;8.23;7.50;;;;;;;10.99;83.39;97859.72;4975768;28;20228;-71
2022/04/26 09:10:49;;;;;;;8.23;7.53;;;;;;;11.21;84.46;97855.50;4976298;28;20208;-70
2022/04/26 09:13:17;;;;;;;11.03;8.80;;;;;;;11.02;90.57;97857.44;4975695;28;20211;-71
2022/04/26 09:15:57;;;;;;;9.93;7.43;;;;;;;10.97;78.32;97864.47;4975543;28;20625;-71
2022/04/26 09:18:31;;;;;;;7.40;6.70;;;;;;;10.97;75.06;97859.13;4975401;28;20247;-71
2022/04/26 09:21:06;;;;;;;9.43;7.63;;;;;;;11.07;80.52;97875.34;4974225;28;20215;-71
2022/04/26 09:23:33;;;;;;;8.03;7.20;;;;;;;11.18;81.22;97871.94;4975449;28;20214;-71
2022/04/26 09:26:00;;;;;;;9.63;6.93;;;;;;;11.21;75.23;97866.16;4975427;28;20204;-71
2022/04/26 09:28:29;;;;;;;7.87;7.20;;;;;;;11.22;75.77;97875.78;4975459;28;20259;-71
2022/04/26 09:30:57;;;;;;;7.80;7.07;;;;;;;11.43;75.15;97877.09;4974758;28;20287;-71
2022/04/26 09:33:32;;;;;;;9.03;8.23;;;;;;;11.88;79.68;97871.03;4973184;28;20208;-71
2022/04/26 09:36:10;;;;;;;8.67;6.90;;;;;;;12.04;71.72;97870.34;4975046;28;20243;-71
2022/04/26 09:38:37;;;;;;;7.13;6.53;;;;;;;12.04;70.91;97872.19;4974228;28;20355;-71
2022/04/26 09:41:07;;;;;;;7.30;6.60;;;;;;;12.40;74.69;97862.09;4975186;28;20215;-71
2022/04/26 09:43:33;;;;;;;7.43;6.17;;;;;;;12.52;67.71;97868.19;4976010;28;20307;-71
2022/04/26 09:46:00;;;;;;;7.60;6.57;;;;;;;12.91;78.06;97870.03;4975164;28;20295;-71
2022/04/26 09:48:38;;;;;;;8.43;6.30;;;;;;;12.78;70.13;97869.50;4973032;28;20249;-71
2022/04/26 09:51:06;;;;;;;7.07;6.10;;;;;;;13.32;69.58;97877.78;4974932;28;20253;-72
2022/04/26 09:53:32;;;;;;;6.90;5.80;;;;;;;13.14;63.48;97864.63;4974901;28;20217;-71
2022/04/26 09:56:00;;;;;;;5.70;5.20;;;;;;;13.30;64.69;97869.19;4974822;28;20204;-71
2022/04/26 09:58:28;;;;;;;6.47;5.93;;;;;;;13.78;72.23;97866.81;4974759;28;20259;-71
2022/04/26 10:00:57;;;;;;;6.27;5.37;;;;;;;13.33;62.84;97865.22;4974504;28;20235;-71
2022/04/26 10:03:31;;;;;;;6.97;5.50;;;;;;;13.18;65.20;97871.13;4972598;28;20694;-71
2022/04/26 10:06:03;;;;;;;7.10;5.43;;;;;;;13.05;69.21;97859.91;4974735;28;20206;-71
2022/04/26 10:08:32;;;;;;;6.40;5.33;;;;;;;12.93;66.23;97864.47;4973982;28;20235;-71
2022/04/26 10:11:00;;;;;;;6.40;4.70;;;;;;;12.84;65.69;97871.25;4972959;28;20636;-71
2022/04/26 10:13:32;;;;;;;7.43;5.07;;;;;;;12.78;69.99;97875.66;4974097;28;20222;-71
2022/04/26 10:16:10;;;;;;;5.10;4.60;;;;;;;12.69;65.10;97871.75;4974410;28;20206;-71
2022/04/26 10:18:44;;;;;;;5.07;4.57;;;;;;;12.79;63.43;97869.28;4972745;28;20238;-71
2022/04/26 10:21:31;;;;;;;5.50;4.87;;;;;;;12.84;72.19;97874.69;4973725;28;20209;-71
2022/04/26 10:24:01;;;;;;;4.90;4.30;;;;;;;12.85;61.28;97872.84;4960801;28;20203;-71
2022/04/26 10:26:28;;;;;;;5.23;4.40;;;;;;;12.87;62.67;97868.91;4971765;28;20203;-71
2022/04/26 10:28:54;;;;;;;5.40;4.37;;;;;;;12.79;59.66;97871.16;4972269;28;20242;-71
2022/04/26 10:31:42;;;;;;;4.47;3.90;;;;;;;13.13;64.76;97873.69;4974383;28;20234;-71
2022/04/26 10:34:21;;;;;;;4.70;3.93;;;;;;;13.31;62.10;97870.00;4974184;28;20635;-71
2022/04/26 10:36:51;;;;;;;4.20;3.80;;;;;;;13.74;64.69;97868.34;4974122;28;20643;-71
2022/04/26 10:39:27;;;;;;;5.13;4.20;;;;;;;14.06;57.55;97864.00;4974385;28;20212;-71
2022/04/26 10:41:55;;;;;;;7.73;4.93;;;;;;;14.40;59.64;97864.78;4971737;28;20705;-71
2022/04/26 10:44:22;;;;;;;5.10;4.20;;;;;;;14.09;60.14;97860.88;4973517;28;20208;-71
2022/04/26 10:47:09;;;;;;;7.43;4.80;;;;;;;14.12;58.40;97863.06;4973801;28;20671;-71
2022/04/26 10:49:35;;;;;;;4.10;3.80;;;;;;;13.87;58.93;97864.50;4973766;28;20619;-71
2022/04/26 10:52:13;;;;;;;5.60;4.07;;;;;;;13.39;55.85;97867.75;4973865;28;20235;-71
2022/04/26 10:54:51;;;;;;;5.73;3.97;;;;;;;13.34;57.40;97870.31;4974325;28;20298;-71
2022/04/26 10:57:20;;;;;;;7.00;3.83;;;;;;;13.12;56.90;97872.06;4972312;28;20630;-71
2022/04/26 10:59:56;;;;;;;6.33;4.20;;;;;;;12.90;69.86;97870.28;4974242;28;20204;-71
2022/04/26 11:02:25;;;;;;;5.20;4.07;;;;;;;13.29;60.29;97870.25;4974362;28;20219;-71
2022/04/26 11:05:02;;;;;;;6.10;3.60;;;;;;;13.16;57.64;97875.88;4974289;28;20243;-71
2022/04/26 11:07:29;;;;;;;6.40;3.60;;;;;;;13.47;60.49;97872.69;4974172;28;20318;-71
2022/04/26 11:09:58;;;;;;;4.57;2.97;;;;;;;13.74;57.83;97879.03;4972772;28;20279;-71
2022/04/26 11:12:30;;;;;;;3.30;3.00;;;;;;;13.77;61.78;97869.72;4974111;28;20235;-71
2022/04/26 11:14:58;;;;;;;5.43;4.20;;;;;;;13.36;56.58;97880.78;4974225;28;20212;-71
2022/04/26 11:17:27;;;;;;;6.10;5.50;;;;;;;12.93;63.13;97891.94;4974134;28;20230;-71
2022/04/26 11:20:16;;;;;;;6.67;5.93;;;;;;;11.86;68.50;97910.41;4976518;28;20211;-71
2022/04/26 11:22:45;;;;;;;6.70;6.10;;;;;;;12.01;68.40;97918.75;4976556;28;20665;-71
2022/04/26 11:28:06;;;;;;;6.70;6.20;;;;;;;12.33;68.90;97917.38;4977356;28;20215;-71
2022/04/26 11:30:32;;;;;;;8.50;6.70;;;;;;;12.18;69.56;97927.69;4977230;28;20296;-71
2022/04/26 11:33:11;;;;;;;9.27;6.40;;;;;;;12.12;71.39;97925.16;4977533;28;20234;-71
2022/04/26 11:35:39;;;;;;;6.43;5.90;;;;;;;11.94;70.02;97928.72;4976645;28;20204;-72
2022/04/26 11:38:08;;;;;;;6.30;5.70;;;;;;;12.06;66.86;97932.19;4977100;28;20571;-71
2022/04/26 11:40:41;;;;;;;5.73;5.23;;;;;;;12.18;69.56;97933.03;4977332;28;20216;-72
2022/04/26 11:43:10;;;;;;;5.87;5.43;;;;;;;11.94;65.99;97938.56;4977521;28;20218;-71
2022/04/26 11:45:37;;;;;;;5.83;5.33;;;;;;;12.18;70.16;97941.03;4977148;28;20221;-72
2022/04/26 11:48:07;;;;;;;6.00;5.40;;;;;;;11.92;70.10;97932.66;4976887;28;20268;-72
2022/04/26 11:50:34;;;;;;;5.27;4.87;;;;;;;11.86;64.80;97926.41;4975140;28;20687;-71
2022/04/26 11:53:06;;;;;;;5.80;5.27;;;;;;;11.79;65.91;97940.84;4975981;28;20592;-71
2022/04/26 11:55:34;;;;;;;6.37;5.77;;;;;;;11.48;67.57;97933.13;4977150;28;20208;-72
2022/04/26 11:58:10;;;;;;;6.30;5.17;;;;;;;11.38;67.38;97941.66;4977039;28;20228;-71
2022/04/26 12:01:11;;;;;;;6.00;5.10;;;;;;;11.50;68.38;97937.19;4976878;28;20219;-72
2022/04/26 12:03:43;;;;;;;7.37;4.97;;;;;;;11.91;69.92;97947.00;4965409;28;20219;-71
2022/04/26 12:06:11;;;;;;;5.17;4.63;;;;;;;12.31;64.43;97947.97;4976230;28;20222;-71
2022/04/26 12:08:40;;;;;;;6.03;5.10;;;;;;;12.45;66.41;97949.34;4976335;28;20234;-72
2022/04/26 12:11:38;;;;;;;4.27;3.87;;;;;;;12.76;65.30;97947.13;4977351;28;20208;-72
2022/04/26 12:14:07;;;;;;;7.00;3.80;;;;;;;13.08;60.91;97935.00;4960993;28;20743;-72
2022/04/26 12:16:57;;;;;;;4.27;3.70;;;;;;;13.20;56.99;97954.44;4976615;28;20213;-71
2022/04/26 12:19:37;;;;;;;4.40;4.00;;;;;;;12.87;59.52;97943.59;4974594;28;20237;-71
2022/04/26 12:22:05;;;;;;;4.57;4.20;;;;;;;12.96;58.65;97947.53;4957105;28;20218;-71
2022/04/26 12:24:33;;;;;;;5.17;4.67;;;;;;;12.99;59.74;97952.44;4956780;29;20216;-71
2022/04/26 12:27:00;;;;;;;6.03;4.40;;;;;;;13.04;60.21;97952.53;4971888;28;20231;-71
2022/04/26 12:29:36;;;;;;;5.70;5.23;;;;;;;12.48;65.72;97968.34;4976292;28;20215;-71
2022/04/26 12:32:07;;;;;;;6.60;6.00;;;;;;;12.18;67.16;97965.00;4974424;28;20250;-71
2022/04/26 12:34:34;;;;;;;6.27;5.73;;;;;;;12.20;64.70;97970.91;4976697;28;20528;-71
2022/04/26 12:37:02;;;;;;;5.80;5.30;;;;;;;11.85;68.01;97943.41;4974282;28;20240;-71
2022/04/26 12:39:37;;;;;;;6.10;3.70;;;;;;;11.80;66.97;97972.59;4973176;28;20205;-71
2022/04/26 12:42:04;;;;;;;4.40;3.40;;;;;;;11.26;66.48;97983.38;4975712;28;20293;-71
2022/04/26 12:44:31;;;;;;;2.77;2.57;;;;;;;11.18;62.68;97978.38;4975362;28;20668;-71
2022/04/26 12:52:47;;;;;;;2.60;2.40;;;;;;;10.61;66.47;98003.59;4974562;28;20273;-71
2022/04/26 12:55:33;;;;;;;2.50;2.30;;;;;;;10.46;72.76;98013.72;4975990;28;20568;-72
2022/04/26 12:58:02;;;;;;;2.67;2.47;;;;;;;10.63;74.00;98016.63;4975886;28;20286;-72
2022/04/26 13:00:29;;;;;;;3.10;2.80;;;;;;;10.68;76.03;98020.25;4975734;28;20208;-72
2022/04/26 13:02:58;;;;;;;3.40;2.63;;;;;;;10.52;75.62;98031.47;4975849;28;20201;-72
2022/04/26 13:05:24;;;;;;;3.13;2.80;;;;;;;10.89;76.09;98021.69;4975903;28;20292;-72
2022/04/26 13:07:52;;;;;;;2.30;2.00;;;;;;;10.56;73.43;98032.66;4975724;28;20231;-72
2022/04/26 13:10:19;;;;;;;2.47;2.10;;;;;;;10.75;74.05;98031.66;4975010;28;20282;-72
2022/04/26 13:12:46;;;;;;;1.90;1.80;;;;;;;10.82;71.88;98020.94;4975699;28;20219;-72
2022/04/26 13:15:15;;;;;;;1.80;1.70;;;;;;;10.83;74.48;98019.91;4975592;28;20212;-72
2022/04/26 13:17:43;;;;;;;1.47;1.43;;;;;;;11.08;72.77;98013.47;4975250;28;20238;-72
2022/04/26 13:20:10;;;;;;;2.10;1.50;;;;;;;11.25;67.95;98023.53;4975262;28;20208;-72
2022/04/26 13:22:37;;;;;;;1.70;1.60;;;;;;;11.78;71.00;98019.13;4974590;28;20299;-72
2022/04/26 13:25:05;;;;;;;1.80;1.70;;;;;;;12.23;63.31;98020.28;4974887;28;20224;-72
2022/04/26 13:27:32;;;;;;;2.73;1.63;;;;;;;12.27;63.57;98026.78;4975200;28;20238;-72
2022/04/26 13:29:59;;;;;;;2.30;1.30;;;;;;;12.39;64.26;98030.28;4975246;28;20270;-72
2022/04/26 13:32:27;;;;;;;1.50;1.40;;;;;;;12.64;60.62;98036.19;4974987;28;20235;-72
2022/04/26 13:34:53;;;;;;;2.37;1.60;;;;;;;12.10;59.39;98029.28;4974753;28;20680;-72
2022/04/26 13:37:21;;;;;;;3.17;2.03;;;;;;;12.13;59.28;98031.50;4973831;28;20224;-72
2022/04/26 13:39:49;;;;;;;2.37;1.83;;;;;;;12.26;58.81;98031.28;4974929;28;20245;-72
2022/04/26 13:42:16;;;;;;;1.83;1.73;;;;;;;12.61;59.74;98024.13;4974805;28;20205;-72
2022/04/26 13:44:43;;;;;;;2.53;2.33;;;;;;;12.30;59.26;98016.44;4974882;28;20215;-72
2022/04/26 13:47:10;;;;;;;2.50;2.30;;;;;;;12.29;61.62;98019.38;4975012;28;20241;-72
2022/04/26 13:49:36;;;;;;;3.93;2.07;;;;;;;12.62;60.53;98023.06;4974699;28;20188;-72
2022/04/26 13:52:04;;;;;;;2.60;2.40;;;;;;;12.74;63.41;98020.41;4974962;28;20237;-72
2022/04/26 13:54:31;;;;;;;2.70;2.50;;;;;;;12.91;60.87;98024.81;4971931;28;20210;-72
2022/04/26 13:56:58;;;;;;;2.60;2.40;;;;;;;12.29;59.70;98030.03;4973965;28;20234;-72
2022/04/26 13:59:25;;;;;;;2.70;2.50;;;;;;;12.17;60.55;98032.66;4974945;28;20210;-71
2022/04/26 14:01:52;;;;;;;5.63;2.53;;;;;;;12.16;58.50;98036.38;4974646;28;20213;-72
2022/04/26 14:04:19;;;;;;;3.83;2.13;;;;;;;12.29;59.60;98038.81;4974557;28;20216;-72
2022/04/26 14:06:46;;;;;;;2.83;2.40;;;;;;;12.76;58.14;98029.00;4974534;28;20220;-72
2022/04/26 14:09:14;;;;;;;2.83;2.57;;;;;;;12.56;57.20;98021.34;4973067;28;20213;-72
2022/04/26 14:11:41;;;;;;;2.73;2.50;;;;;;;12.46;58.03;98037.09;4974321;28;20208;-72
2022/04/26 14:22:19;;;;;;;3.73;3.10;;;;;;;12.35;60.86;98031.78;4974869;28;20672;-72
2022/04/26 14:24:48;;;;;;;3.03;2.73;;;;;;;12.43;62.08;98040.22;4974461;28;20210;-72
2022/04/26 14:27:14;;;;;;;3.63;2.83;;;;;;;12.24;59.20;98030.72;4972790;28;20228;-72
2022/04/26 14:29:41;;;;;;;3.00;2.80;;;;;;;12.05;61.33;98029.19;4974162;28;20220;-72
2022/04/26 14:32:08;;;;;;;3.20;2.90;;;;;;;12.14;60.79;98037.63;4973965;28;20696;-72
2022/04/26 14:34:36;;;;;;;2.70;2.50;;;;;;;12.08;59.69;98035.91;4974322;28;20619;-72
2022/04/26 14:37:03;;;;;;;3.47;3.17;;;;;;;12.24;59.57;98037.88;4974292;28;20260;-72
2022/04/26 14:39:30;;;;;;;3.60;2.87;;;;;;;12.10;61.43;98034.63;4974615;28;20208;-72
2022/04/26 14:41:56;;;;;;;3.17;2.47;;;;;;;12.70;59.37;98030.72;4973050;28;20209;-72
2022/04/26 14:44:23;;;;;;;3.07;2.77;;;;;;;13.21;58.88;98024.66;4973833;28;20571;-72
2022/04/26 14:46:49;;;;;;;3.30;2.33;;;;;;;13.27;54.84;98029.88;4972773;28;20219;-72
2022/04/26 14:49:16;;;;;;;2.60;2.40;;;;;;;13.46;55.06;98031.31;4974511;28;20209;-72
2022/04/26 14:51:42;;;;;;;4.50;2.53;;;;;;;13.45;52.90;98032.38;4973980;28;20215;-72
2022/04/26 14:54:08;;;;;;;3.20;2.45;;;;;;;13.52;52.06;98027.69;4975635;28;20451;-72
2022/04/26 14:56:35;;;;;;;2.07;1.97;;;;;;;13.45;53.52;98032.38;4976573;28;20298;-72
2022/04/26 14:59:02;;;;;;;2.50;2.30;;;;;;;13.20;55.66;98026.50;4977609;28;20211;-72
2022/04/26 15:01:30;;;;;;;2.47;2.20;;;;;;;13.16;54.74;98033.34;4977666;28;20666;-71
2022/04/26 15:03:57;;;;;;;2.27;2.10;;;;;;;12.69;54.87;98038.97;4977904;28;20299;-71
2022/04/26 15:06:27;;;;;;;2.47;2.27;;;;;;;12.95;57.17;98046.50;4977494;28;20707;-71
2022/04/26 15:11:43;;;;;;;2.50;2.30;;;;;;;12.51;55.02;98036.41;4965605;28;20678;-71
2022/04/26 15:16:54;;;;;;;2.80;2.40;;;;;;;12.35;58.26;98043.22;4975751;28;20202;-71
2022/04/26 15:19:21;;;;;;;3.03;2.60;;;;;;;12.18;56.69;98039.63;4977523;28;20265;-71
2022/04/26 15:21:47;;;;;;;3.23;2.50;;;;;;;12.07;57.80;98044.94;4976702;28;20349;-72
2022/04/26 15:24:15;;;;;;;2.67;2.43;;;;;;;12.12;59.08;98047.72;4977622;28;20212;-71
2022/04/26 15:26:41;;;;;;;2.73;2.53;;;;;;;12.04;57.94;98048.88;4977786;28;20309;-71
2022/04/26 15:29:08;;;;;;;3.10;2.80;;;;;;;12.05;58.55;98047.81;4977401;28;20204;-71
2022/04/26 15:31:35;;;;;;;3.70;3.03;;;;;;;12.09;60.04;98045.50;4977273;28;20220;-71
2022/04/26 15:34:03;;;;;;;4.93;3.00;;;;;;;12.00;62.38;98042.38;4976274;28;20235;-71
2022/04/26 15:36:29;;;;;;;2.50;1.93;;;;;;;11.72;63.23;98047.50;4976953;28;20259;-71
2022/04/26 15:38:56;;;;;;;2.37;2.17;;;;;;;11.79;63.10;98048.19;4977089;28;20246;-71
2022/04/26 15:41:24;;;;;;;2.40;2.23;;;;;;;11.75;62.59;98052.34;4976687;28;20576;-71
2022/04/26 15:43:50;;;;;;;2.60;2.40;;;;;;;11.58;67.61;98063.84;4977045;28;20233;-71
2022/04/26 15:46:17;;;;;;;3.30;3.03;;;;;;;11.18;73.68;98070.69;4976829;28;20216;-71
2022/04/26 15:48:48;;;;;;;3.77;3.47;;;;;;;11.00;77.71;98061.66;4975830;28;20238;-71